createdAt,value
2019-05-15T12:13:51.519Z,52.10
2019-05-15T12:16:21.397Z,51.40
2019-05-15T12:18:51.377Z,50.50
2019-05-15T12:30:19.944Z,50.00
2019-05-15T12:33:00.232Z,49.90
2019-05-15T12:35:39.758Z,49.70
2019-05-15T12:38:10.321Z,49.80
2019-05-15T13:05:36.003Z,48.30
2019-05-15T13:08:59.528Z,48.20
2019-05-15T13:09:20.693Z,48.80
2019-05-15T13:11:39.273Z,48.20
2019-05-15T13:24:23.777Z,47.70
2019-05-15T13:49:27.973Z,47.50
2019-05-15T13:51:59.320Z,46.70
2019-05-15T13:54:32.081Z,46.70
2019-05-15T13:57:03.254Z,46.80
2019-05-15T13:59:33.193Z,46.70
2019-05-15T14:02:03.132Z,46.30
2019-05-15T14:04:38.490Z,46.10
2019-05-15T14:07:08.646Z,46.20
2019-05-15T14:09:44.390Z,46.60
2019-05-15T14:12:13.040Z,47.50
2019-05-15T14:14:43.223Z,46.80
2019-05-15T14:17:14.557Z,46.30
2019-05-15T14:20:02.478Z,46.30
2019-05-15T14:22:35.542Z,46.40
2019-05-15T14:25:08.823Z,46.20
2019-05-15T14:27:39.859Z,46.40
2019-05-15T14:30:10.920Z,46.30
2019-05-15T14:32:40.844Z,46.30
2019-05-15T14:35:10.683Z,46.10
2019-05-15T14:37:40.609Z,45.90
2019-05-15T14:40:10.867Z,45.90
2019-05-15T14:42:41.843Z,46.00
2019-05-15T14:45:12.168Z,46.10
2019-05-15T14:47:42.099Z,46.10
2019-05-15T14:50:13.062Z,45.80
2019-05-15T14:52:42.971Z,45.70
2019-05-15T14:55:13.147Z,45.80
2019-05-15T14:57:48.504Z,45.70
2019-05-15T15:00:19.992Z,45.60
2019-05-15T15:02:52.058Z,45.40
2019-05-15T15:05:23.135Z,45.60
2019-05-15T15:07:53.221Z,46.30
2019-05-15T15:10:23.453Z,46.70
2019-05-15T15:12:53.361Z,47.00
2019-05-15T15:15:23.216Z,47.20
2019-05-15T15:17:58.138Z,47.20
2019-05-15T15:20:28.584Z,46.90
2019-05-15T15:22:58.898Z,47.10
2019-05-15T15:25:28.861Z,47.40
2019-05-15T15:28:04.496Z,47.50
2019-05-15T15:30:40.799Z,47.10
2019-05-15T15:33:15.086Z,47.20
2019-05-15T15:35:49.266Z,47.00
2019-05-15T15:38:43.726Z,47.10
2019-05-15T15:41:12.450Z,47.20
2019-05-15T15:45:19.381Z,47.60
2019-05-15T15:47:53.518Z,47.80
2019-05-15T15:50:28.773Z,47.80
2019-05-15T15:52:59.581Z,48.10
2019-05-15T15:55:34.488Z,48.10
2019-05-15T15:58:08.758Z,48.00
2019-05-15T16:00:39.110Z,48.40
2019-05-15T16:03:09.012Z,47.80
2019-05-15T16:05:38.959Z,47.70
2019-05-15T16:08:28.545Z,47.70
2019-05-15T16:10:59.093Z,47.60
2019-05-15T16:13:29.396Z,47.50
2019-05-15T16:15:59.475Z,47.50
2019-05-15T16:18:29.447Z,47.70
2019-05-15T16:20:59.386Z,47.40
2019-05-15T16:23:29.285Z,47.40
2019-05-15T16:26:01.012Z,47.50
2019-05-15T16:28:38.807Z,47.50
2019-05-15T16:31:09.021Z,47.30
2019-05-15T16:33:39.110Z,47.20
2019-05-15T16:36:09.084Z,47.20
2019-05-15T16:38:39.225Z,47.10
2019-05-15T16:41:09.232Z,46.70
2019-05-15T16:43:39.146Z,46.40
2019-05-15T16:46:09.327Z,46.40
2019-05-15T16:48:43.423Z,46.30
2019-05-15T16:51:13.368Z,45.80
2019-05-15T16:53:48.935Z,45.60
2019-05-15T16:56:19.182Z,46.30
2019-05-15T16:58:49.226Z,45.80
2019-05-15T17:01:19.222Z,45.70
2019-05-15T17:03:49.162Z,45.80
2019-05-15T17:06:19.393Z,45.80
2019-05-15T17:09:20.843Z,45.40
2019-05-15T17:11:40.442Z,45.40
2019-05-15T17:14:10.312Z,45.20
2019-05-15T17:16:42.047Z,45.40
2019-05-15T17:19:35.642Z,45.50
2019-05-15T17:22:08.983Z,45.70
2019-05-15T17:24:41.647Z,45.70
2019-05-15T17:27:15.790Z,45.60
2019-05-15T17:29:45.778Z,45.20
2019-05-15T17:32:18.477Z,45.60
2019-05-15T17:34:49.470Z,45.60
2019-05-15T17:37:19.385Z,45.60
2019-05-15T17:39:53.271Z,45.60
2019-05-15T17:42:23.145Z,45.80
2019-05-15T17:44:53.016Z,45.70
2019-05-15T17:47:22.909Z,45.70
2019-05-15T17:50:29.252Z,45.50
2019-05-15T17:53:02.133Z,45.70
2019-05-15T17:56:02.439Z,45.90
2019-05-15T17:58:38.253Z,45.80
2019-05-15T18:01:08.855Z,45.90
2019-05-15T18:03:39.406Z,46.00
2019-05-15T18:06:09.433Z,46.10
2019-05-15T18:08:39.875Z,46.00
2019-05-15T18:11:09.809Z,45.90
2019-05-15T18:13:41.035Z,45.90
2019-05-15T18:16:13.433Z,46.00
2019-05-15T18:18:44.628Z,46.00
2019-05-15T18:21:19.709Z,45.90
2019-05-15T18:23:53.911Z,45.90
2019-05-15T18:26:23.760Z,46.80
2019-05-15T18:28:58.459Z,46.20
2019-05-15T18:31:29.989Z,46.10
2019-05-15T18:33:59.883Z,46.10
2019-05-15T18:36:29.789Z,46.20
2019-05-15T18:38:59.757Z,46.20
2019-05-15T18:41:29.688Z,46.30
2019-05-15T18:43:59.522Z,46.30
2019-05-15T18:46:29.450Z,46.20
2019-05-15T18:49:03.479Z,46.30
2019-05-15T18:51:33.391Z,46.30
2019-05-15T18:54:03.302Z,46.40
2019-05-15T18:56:34.391Z,47.20
2019-05-15T18:59:12.701Z,46.60
2019-05-15T19:02:00.462Z,46.70
2019-05-15T19:04:28.895Z,47.00
2019-05-15T19:06:58.874Z,47.00
2019-05-15T19:09:35.186Z,47.20
2019-05-15T19:12:09.303Z,47.20
2019-05-15T19:14:40.508Z,47.30
2019-05-15T19:17:10.374Z,47.30
2019-05-15T19:19:40.386Z,47.30
2019-05-15T19:22:10.318Z,47.30
2019-05-15T19:24:40.327Z,47.40
2019-05-15T19:27:10.184Z,47.50
2019-05-15T19:29:48.008Z,47.60
2019-05-15T19:32:54.237Z,47.70
2019-05-15T19:35:24.250Z,47.70
2019-05-15T19:37:54.133Z,47.80
2019-05-15T19:40:24.053Z,47.90
2019-05-15T19:42:53.832Z,48.00
2019-05-15T19:45:24.711Z,48.10
2019-05-15T19:47:54.654Z,48.20
2019-05-15T19:50:24.965Z,48.30
2019-05-15T19:53:00.707Z,48.40
2019-05-15T19:55:30.617Z,48.60
2019-05-15T19:58:08.674Z,48.60
2019-05-15T20:00:38.826Z,48.70
2019-05-15T20:03:10.868Z,48.80
2019-05-15T20:05:40.766Z,48.80
2019-05-15T20:08:15.899Z,48.90
2019-05-15T20:10:48.557Z,48.90
2019-05-15T20:13:18.849Z,49.00
2019-05-15T20:15:51.262Z,49.10
2019-05-15T20:18:21.204Z,48.70
2019-05-15T20:20:51.124Z,49.30
2019-05-15T20:23:21.118Z,49.40
2019-05-15T20:25:51.101Z,49.50
2019-05-15T20:28:34.549Z,49.70
2019-05-15T20:31:04.373Z,49.80
2019-05-15T20:33:34.284Z,49.80
2019-05-15T20:36:04.131Z,50.00
2019-05-15T20:38:39.521Z,50.10
2019-05-15T20:41:09.635Z,50.20
2019-05-15T20:43:41.028Z,50.30
2019-05-15T20:46:10.855Z,50.50
2019-05-15T20:48:40.798Z,50.60
2019-05-15T20:51:10.732Z,51.30
2019-05-15T20:53:40.575Z,50.80
2019-05-15T20:56:10.484Z,50.90
2019-05-15T20:59:18.224Z,50.90
2019-05-15T21:01:51.203Z,51.10
2019-05-15T21:04:23.730Z,51.10
2019-05-15T21:06:52.644Z,51.50
2019-05-15T21:09:40.415Z,51.30
2019-05-15T21:12:11.304Z,51.50
2019-05-15T21:14:41.204Z,51.60
2019-05-15T21:17:11.051Z,51.70
2019-05-15T21:19:40.993Z,51.80
2019-05-15T21:22:11.105Z,52.00
2019-05-15T21:24:43.051Z,52.00
2019-05-15T21:27:13.250Z,52.00
2019-05-15T21:30:01.544Z,52.20
2019-05-15T21:32:31.674Z,52.20
2019-05-15T21:35:01.592Z,52.20
2019-05-15T21:37:31.448Z,52.30
2019-05-15T21:40:22.784Z,52.30
2019-05-15T21:42:52.706Z,52.40
2019-05-15T21:45:40.955Z,52.50
2019-05-15T21:48:11.957Z,52.60
2019-05-15T21:50:42.397Z,52.60
2019-05-15T21:53:12.678Z,52.70
2019-05-15T21:55:42.533Z,52.70
2019-05-15T21:58:12.486Z,52.70
2019-05-15T22:00:45.462Z,52.90
2019-05-15T22:03:19.487Z,52.80
2019-05-15T22:05:48.766Z,52.90
2019-05-15T22:09:18.414Z,52.90
2019-05-15T22:11:49.755Z,53.00
2019-05-15T22:14:20.817Z,53.00
2019-05-15T22:16:50.653Z,53.20
2019-05-15T22:19:20.878Z,53.20
2019-05-15T22:21:50.823Z,53.20
2019-05-15T22:24:24.424Z,53.30
2019-05-15T22:26:54.553Z,53.30
2019-05-15T22:29:24.496Z,53.60
2019-05-15T22:31:54.425Z,53.30
2019-05-15T22:34:24.377Z,53.30
2019-05-15T22:36:54.250Z,53.30
2019-05-15T22:39:28.252Z,53.40
2019-05-15T22:41:58.541Z,53.40
2019-05-15T22:44:28.497Z,53.50
2019-05-15T22:46:58.343Z,53.40
2019-05-15T22:49:35.041Z,53.40
2019-05-15T22:52:04.964Z,53.50
2019-05-15T22:54:34.814Z,53.50
2019-05-15T22:57:04.753Z,53.50
2019-05-15T22:59:40.877Z,53.60
2019-05-15T23:02:10.765Z,53.60
2019-05-15T23:04:40.673Z,53.70
2019-05-15T23:07:10.529Z,53.60
2019-05-15T23:09:48.974Z,53.70
2019-05-15T23:12:18.567Z,53.80
2019-05-15T23:14:48.632Z,53.70
2019-05-15T23:17:18.525Z,53.80
2019-05-15T23:19:52.132Z,53.80
2019-05-15T23:22:22.012Z,54.00
2019-05-15T23:24:52.247Z,53.80
2019-05-15T23:27:22.136Z,53.80
2019-05-15T23:29:52.098Z,53.80
2019-05-15T23:32:21.990Z,53.90
2019-05-15T23:34:51.893Z,53.80
2019-05-15T23:37:21.739Z,53.80
2019-05-15T23:39:51.695Z,53.70
2019-05-15T23:42:21.581Z,53.90
2019-05-15T23:44:51.470Z,54.10
2019-05-15T23:47:21.353Z,54.10
2019-05-15T23:49:51.277Z,54.10
2019-05-15T23:52:21.195Z,54.10
2019-05-15T23:54:51.089Z,54.00
2019-05-15T23:57:20.929Z,53.90
2019-05-15T23:59:56.372Z,53.90
